sensor_id;sensor_type;location;lat;lon;timestamp;P1;durP1;ratioP1;P2;durP2;ratioP2
14121;SDS011;7139;48.114;11.442;2023-12-07T00:01:13;11.10;;;10.00;;
14121;SDS011;7139;48.114;11.442;2023-12-07T00:03:40;10.90;;;9.80;;
14121;SDS011;7139;48.114;11.442;2023-12-07T00:06:07;11.93;;;10.70;;
14121;SDS011;7139;48.114;11.442;2023-12-07T00:08:34;11.33;;;10.20;;
14121;SDS011;7139;48.114;11.442;2023-12-07T00:11:02;11.83;;;10.63;;
14121;SDS011;7139;48.114;11.442;2023-12-07T00:13:30;11.93;;;10.43;;
14121;SDS011;7139;48.114;11.442;2023-12-07T00:15:57;11.07;;;9.87;;
14121;SDS011;7139;48.114;11.442;2023-12-07T00:18:24;12.70;;;10.83;;
14121;SDS011;7139;48.114;11.442;2023-12-07T00:20:51;11.87;;;10.30;;
14121;SDS011;7139;48.114;11.442;2023-12-07T00:23:18;12.07;;;10.80;;
14121;SDS011;7139;48.114;11.442;2023-12-07T00:25:45;11.90;;;10.57;;
14121;SDS011;7139;48.114;11.442;2023-12-07T00:28:12;12.23;;;10.80;;
14121;SDS011;7139;48.114;11.442;2023-12-07T00:30:41;12.30;;;10.77;;
14121;SDS011;7139;48.114;11.442;2023-12-07T00:33:08;12.50;;;11.07;;
14121;SDS011;7139;48.114;11.442;2023-12-07T00:35:35;12.73;;;11.23;;
14121;SDS011;7139;48.114;11.442;2023-12-07T00:38:02;13.23;;;11.83;;
14121;SDS011;7139;48.114;11.442;2023-12-07T00:40:31;14.50;;;12.10;;
14121;SDS011;7139;48.114;11.442;2023-12-07T00:43:00;13.87;;;11.97;;
14121;SDS011;7139;48.114;11.442;2023-12-07T00:45:28;13.37;;;11.80;;
14121;SDS011;7139;48.114;11.442;2023-12-07T00:47:57;15.63;;;13.30;;
14121;SDS011;7139;48.114;11.442;2023-12-07T00:50:24;15.60;;;12.93;;
14121;SDS011;7139;48.114;11.442;2023-12-07T00:52:51;14.47;;;12.77;;
14121;SDS011;7139;48.114;11.442;2023-12-07T00:55:18;14.57;;;12.03;;
14121;SDS011;7139;48.114;11.442;2023-12-07T00:57:45;14.40;;;12.10;;
14121;SDS011;7139;48.114;11.442;2023-12-07T01:00:12;14.33;;;12.63;;
14121;SDS011;7139;48.114;11.442;2023-12-07T01:02:40;13.47;;;12.07;;
14121;SDS011;7139;48.114;11.442;2023-12-07T01:05:08;14.37;;;12.60;;
14121;SDS011;7139;48.114;11.442;2023-12-07T01:07:35;15.10;;;13.03;;
14121;SDS011;7139;48.114;11.442;2023-12-07T01:10:03;13.60;;;12.03;;
14121;SDS011;7139;48.114;11.442;2023-12-07T01:12:30;15.73;;;12.70;;
14121;SDS011;7139;48.114;11.442;2023-12-07T01:14:58;15.10;;;12.67;;
14121;SDS011;7139;48.114;11.442;2023-12-07T01:17:25;14.03;;;11.23;;
14121;SDS011;7139;48.114;11.442;2023-12-07T01:19:52;14.23;;;11.97;;
14121;SDS011;7139;48.114;11.442;2023-12-07T01:22:20;13.53;;;12.00;;
14121;SDS011;7139;48.114;11.442;2023-12-07T01:24:47;14.83;;;13.03;;
14121;SDS011;7139;48.114;11.442;2023-12-07T01:27:14;15.13;;;11.97;;
14121;SDS011;7139;48.114;11.442;2023-12-07T01:29:42;14.23;;;11.57;;
14121;SDS011;7139;48.114;11.442;2023-12-07T01:32:09;13.77;;;11.73;;
14121;SDS011;7139;48.114;11.442;2023-12-07T01:34:36;14.40;;;12.13;;
14121;SDS011;7139;48.114;11.442;2023-12-07T01:37:03;13.50;;;11.67;;
14121;SDS011;7139;48.114;11.442;2023-12-07T01:39:31;14.27;;;11.67;;
14121;SDS011;7139;48.114;11.442;2023-12-07T01:41:58;12.43;;;11.13;;
14121;SDS011;7139;48.114;11.442;2023-12-07T01:44:25;13.27;;;11.57;;
14121;SDS011;7139;48.114;11.442;2023-12-07T01:46:53;14.17;;;11.30;;
14121;SDS011;7139;48.114;11.442;2023-12-07T01:49:20;11.33;;;9.97;;
14121;SDS011;7139;48.114;11.442;2023-12-07T01:51:48;11.90;;;10.00;;
14121;SDS011;7139;48.114;11.442;2023-12-07T01:54:15;13.30;;;10.40;;
14121;SDS011;7139;48.114;11.442;2023-12-07T01:56:43;11.70;;;10.60;;
14121;SDS011;7139;48.114;11.442;2023-12-07T01:59:10;13.13;;;10.23;;
14121;SDS011;7139;48.114;11.442;2023-12-07T02:01:38;12.63;;;10.70;;
14121;SDS011;7139;48.114;11.442;2023-12-07T02:04:05;12.27;;;10.80;;
14121;SDS011;7139;48.114;11.442;2023-12-07T02:06:32;12.70;;;11.07;;
14121;SDS011;7139;48.114;11.442;2023-12-07T02:08:59;13.90;;;11.53;;
14121;SDS011;7139;48.114;11.442;2023-12-07T02:11:26;13.63;;;11.53;;
14121;SDS011;7139;48.114;11.442;2023-12-07T02:13:55;12.57;;;11.03;;
14121;SDS011;7139;48.114;11.442;2023-12-07T02:16:23;13.60;;;10.77;;
14121;SDS011;7139;48.114;11.442;2023-12-07T02:18:54;12.33;;;11.03;;
14121;SDS011;7139;48.114;11.442;2023-12-07T02:21:25;11.93;;;10.67;;
14121;SDS011;7139;48.114;11.442;2023-12-07T02:23:53;13.43;;;11.33;;
14121;SDS011;7139;48.114;11.442;2023-12-07T02:26:20;12.53;;;10.47;;
14121;SDS011;7139;48.114;11.442;2023-12-07T02:28:50;13.23;;;11.27;;
14121;SDS011;7139;48.114;11.442;2023-12-07T02:31:17;12.30;;;10.93;;
14121;SDS011;7139;48.114;11.442;2023-12-07T02:33:44;13.03;;;11.60;;
14121;SDS011;7139;48.114;11.442;2023-12-07T02:36:12;13.77;;;11.67;;
14121;SDS011;7139;48.114;11.442;2023-12-07T02:38:40;14.93;;;11.67;;
14121;SDS011;7139;48.114;11.442;2023-12-07T02:41:08;13.03;;;11.30;;
14121;SDS011;7139;48.114;11.442;2023-12-07T02:43:36;13.70;;;10.80;;
14121;SDS011;7139;48.114;11.442;2023-12-07T02:46:04;14.03;;;12.47;;
14121;SDS011;7139;48.114;11.442;2023-12-07T02:48:31;14.73;;;11.97;;
14121;SDS011;7139;48.114;11.442;2023-12-07T02:50:58;15.03;;;12.20;;
14121;SDS011;7139;48.114;11.442;2023-12-07T02:53:25;16.17;;;12.07;;
14121;SDS011;7139;48.114;11.442;2023-12-07T02:55:52;16.00;;;12.27;;
14121;SDS011;7139;48.114;11.442;2023-12-07T02:58:20;16.30;;;13.03;;
14121;SDS011;7139;48.114;11.442;2023-12-07T03:00:47;14.97;;;12.43;;
14121;SDS011;7139;48.114;11.442;2023-12-07T03:03:15;15.47;;;12.50;;
14121;SDS011;7139;48.114;11.442;2023-12-07T03:05:42;15.27;;;12.20;;
14121;SDS011;7139;48.114;11.442;2023-12-07T03:08:09;16.23;;;12.80;;
14121;SDS011;7139;48.114;11.442;2023-12-07T03:10:36;16.00;;;12.90;;
14121;SDS011;7139;48.114;11.442;2023-12-07T03:13:03;13.53;;;12.13;;
14121;SDS011;7139;48.114;11.442;2023-12-07T03:15:30;15.67;;;12.80;;
14121;SDS011;7139;48.114;11.442;2023-12-07T03:17:57;14.70;;;12.87;;
14121;SDS011;7139;48.114;11.442;2023-12-07T03:20:26;15.30;;;12.20;;
14121;SDS011;7139;48.114;11.442;2023-12-07T03:22:53;14.87;;;12.83;;
14121;SDS011;7139;48.114;11.442;2023-12-07T03:25:20;14.30;;;12.30;;
14121;SDS011;7139;48.114;11.442;2023-12-07T03:27:47;14.30;;;12.23;;
14121;SDS011;7139;48.114;11.442;2023-12-07T03:30:14;16.03;;;12.83;;
14121;SDS011;7139;48.114;11.442;2023-12-07T03:32:41;15.70;;;12.83;;
14121;SDS011;7139;48.114;11.442;2023-12-07T03:35:08;14.03;;;12.17;;
14121;SDS011;7139;48.114;11.442;2023-12-07T03:37:37;15.10;;;11.83;;
14121;SDS011;7139;48.114;11.442;2023-12-07T03:40:05;15.40;;;12.10;;
14121;SDS011;7139;48.114;11.442;2023-12-07T03:42:34;14.20;;;12.00;;
14121;SDS011;7139;48.114;11.442;2023-12-07T03:45:01;14.13;;;12.17;;
14121;SDS011;7139;48.114;11.442;2023-12-07T03:47:28;14.43;;;12.67;;
14121;SDS011;7139;48.114;11.442;2023-12-07T03:49:55;15.13;;;11.40;;
14121;SDS011;7139;48.114;11.442;2023-12-07T03:52:22;14.77;;;12.03;;
14121;SDS011;7139;48.114;11.442;2023-12-07T03:54:50;14.67;;;11.97;;
14121;SDS011;7139;48.114;11.442;2023-12-07T03:57:18;14.90;;;12.07;;
14121;SDS011;7139;48.114;11.442;2023-12-07T03:59:45;15.57;;;12.50;;
14121;SDS011;7139;48.114;11.442;2023-12-07T04:02:12;15.90;;;12.53;;
14121;SDS011;7139;48.114;11.442;2023-12-07T04:04:39;13.37;;;11.87;;
14121;SDS011;7139;48.114;11.442;2023-12-07T04:07:07;15.17;;;11.97;;
14121;SDS011;7139;48.114;11.442;2023-12-07T04:09:34;14.23;;;12.00;;
14121;SDS011;7139;48.114;11.442;2023-12-07T04:12:02;15.00;;;11.97;;
14121;SDS011;7139;48.114;11.442;2023-12-07T04:14:29;15.23;;;11.70;;
14121;SDS011;7139;48.114;11.442;2023-12-07T04:16:56;13.23;;;11.20;;
14121;SDS011;7139;48.114;11.442;2023-12-07T04:19:23;13.23;;;11.47;;
14121;SDS011;7139;48.114;11.442;2023-12-07T04:21:51;13.30;;;11.20;;
14121;SDS011;7139;48.114;11.442;2023-12-07T04:24:18;14.73;;;11.33;;
14121;SDS011;7139;48.114;11.442;2023-12-07T04:26:45;12.87;;;10.70;;
14121;SDS011;7139;48.114;11.442;2023-12-07T04:29:15;14.27;;;10.83;;
14121;SDS011;7139;48.114;11.442;2023-12-07T04:31:42;12.63;;;10.63;;
14121;SDS011;7139;48.114;11.442;2023-12-07T04:34:09;13.17;;;11.10;;
14121;SDS011;7139;48.114;11.442;2023-12-07T04:36:36;12.97;;;11.07;;
14121;SDS011;7139;48.114;11.442;2023-12-07T04:39:03;12.33;;;10.80;;
14121;SDS011;7139;48.114;11.442;2023-12-07T04:41:30;14.90;;;11.00;;
14121;SDS011;7139;48.114;11.442;2023-12-07T04:43:58;12.40;;;10.20;;
14121;SDS011;7139;48.114;11.442;2023-12-07T04:46:26;11.97;;;9.90;;
14121;SDS011;7139;48.114;11.442;2023-12-07T04:48:53;14.43;;;10.43;;
14121;SDS011;7139;48.114;11.442;2023-12-07T04:51:20;12.47;;;10.77;;
14121;SDS011;7139;48.114;11.442;2023-12-07T04:53:47;13.67;;;11.10;;
14121;SDS011;7139;48.114;11.442;2023-12-07T04:56:15;12.23;;;10.87;;
14121;SDS011;7139;48.114;11.442;2023-12-07T04:58:42;12.93;;;11.03;;
14121;SDS011;7139;48.114;11.442;2023-12-07T05:01:09;11.20;;;9.50;;
14121;SDS011;7139;48.114;11.442;2023-12-07T05:03:37;13.37;;;10.80;;
14121;SDS011;7139;48.114;11.442;2023-12-07T05:06:04;10.97;;;9.27;;
14121;SDS011;7139;48.114;11.442;2023-12-07T05:08:32;14.43;;;10.60;;
14121;SDS011;7139;48.114;11.442;2023-12-07T05:10:59;11.80;;;9.60;;
14121;SDS011;7139;48.114;11.442;2023-12-07T05:13:26;12.00;;;10.00;;
14121;SDS011;7139;48.114;11.442;2023-12-07T05:15:53;12.13;;;9.87;;
14121;SDS011;7139;48.114;11.442;2023-12-07T05:18:22;11.03;;;9.60;;
14121;SDS011;7139;48.114;11.442;2023-12-07T05:20:50;10.53;;;8.93;;
14121;SDS011;7139;48.114;11.442;2023-12-07T05:23:17;10.90;;;9.50;;
14121;SDS011;7139;48.114;11.442;2023-12-07T05:25:44;12.70;;;9.40;;
14121;SDS011;7139;48.114;11.442;2023-12-07T05:28:12;12.10;;;9.67;;
14121;SDS011;7139;48.114;11.442;2023-12-07T05:30:39;11.93;;;9.60;;
14121;SDS011;7139;48.114;11.442;2023-12-07T05:33:06;10.90;;;9.53;;
14121;SDS011;7139;48.114;11.442;2023-12-07T05:35:33;11.00;;;9.23;;
14121;SDS011;7139;48.114;11.442;2023-12-07T05:38:03;11.93;;;9.17;;
14121;SDS011;7139;48.114;11.442;2023-12-07T05:40:30;11.20;;;9.20;;
14121;SDS011;7139;48.114;11.442;2023-12-07T05:42:58;11.33;;;8.70;;
14121;SDS011;7139;48.114;11.442;2023-12-07T05:45:25;9.17;;;7.83;;
14121;SDS011;7139;48.114;11.442;2023-12-07T05:47:53;8.10;;;7.30;;
14121;SDS011;7139;48.114;11.442;2023-12-07T05:50:20;8.27;;;7.30;;
14121;SDS011;7139;48.114;11.442;2023-12-07T05:52:47;10.63;;;8.33;;
14121;SDS011;7139;48.114;11.442;2023-12-07T05:55:15;7.97;;;7.17;;
14121;SDS011;7139;48.114;11.442;2023-12-07T05:57:44;8.40;;;7.50;;
14121;SDS011;7139;48.114;11.442;2023-12-07T06:00:12;9.27;;;7.87;;
14121;SDS011;7139;48.114;11.442;2023-12-07T06:02:41;10.40;;;7.70;;
14121;SDS011;7139;48.114;11.442;2023-12-07T06:05:08;8.17;;;7.37;;
14121;SDS011;7139;48.114;11.442;2023-12-07T06:07:36;9.73;;;7.93;;
14121;SDS011;7139;48.114;11.442;2023-12-07T06:10:03;9.07;;;8.13;;
14121;SDS011;7139;48.114;11.442;2023-12-07T06:12:31;11.50;;;9.00;;
14121;SDS011;7139;48.114;11.442;2023-12-07T06:14:59;11.90;;;9.23;;
14121;SDS011;7139;48.114;11.442;2023-12-07T06:17:26;13.67;;;10.83;;
14121;SDS011;7139;48.114;11.442;2023-12-07T06:19:53;12.60;;;11.10;;
14121;SDS011;7139;48.114;11.442;2023-12-07T06:22:21;14.57;;;10.93;;
14121;SDS011;7139;48.114;11.442;2023-12-07T06:24:48;11.80;;;10.30;;
14121;SDS011;7139;48.114;11.442;2023-12-07T06:27:15;11.63;;;9.90;;
14121;SDS011;7139;48.114;11.442;2023-12-07T06:29:44;11.03;;;9.40;;
14121;SDS011;7139;48.114;11.442;2023-12-07T06:32:11;9.83;;;8.30;;
14121;SDS011;7139;48.114;11.442;2023-12-07T06:34:39;8.50;;;7.50;;
14121;SDS011;7139;48.114;11.442;2023-12-07T06:37:07;10.77;;;8.10;;
14121;SDS011;7139;48.114;11.442;2023-12-07T06:39:35;9.20;;;7.67;;
14121;SDS011;7139;48.114;11.442;2023-12-07T06:42:02;8.87;;;7.37;;
14121;SDS011;7139;48.114;11.442;2023-12-07T06:44:29;9.17;;;7.30;;
14121;SDS011;7139;48.114;11.442;2023-12-07T06:46:58;8.57;;;7.57;;
14121;SDS011;7139;48.114;11.442;2023-12-07T06:49:28;8.30;;;7.30;;
14121;SDS011;7139;48.114;11.442;2023-12-07T06:51:55;9.53;;;7.50;;
14121;SDS011;7139;48.114;11.442;2023-12-07T06:54:22;7.90;;;6.90;;
14121;SDS011;7139;48.114;11.442;2023-12-07T06:56:49;8.50;;;7.23;;
14121;SDS011;7139;48.114;11.442;2023-12-07T06:59:17;8.50;;;6.73;;
14121;SDS011;7139;48.114;11.442;2023-12-07T07:01:44;8.80;;;7.37;;
14121;SDS011;7139;48.114;11.442;2023-12-07T07:04:13;9.63;;;7.53;;
14121;SDS011;7139;48.114;11.442;2023-12-07T07:06:41;8.33;;;7.43;;
14121;SDS011;7139;48.114;11.442;2023-12-07T07:09:09;8.40;;;6.43;;
14121;SDS011;7139;48.114;11.442;2023-12-07T07:11:36;11.50;;;7.33;;
14121;SDS011;7139;48.114;11.442;2023-12-07T07:14:03;8.67;;;7.07;;
14121;SDS011;7139;48.114;11.442;2023-12-07T07:16:30;8.87;;;7.03;;
14121;SDS011;7139;48.114;11.442;2023-12-07T07:18:58;7.63;;;6.83;;
14121;SDS011;7139;48.114;11.442;2023-12-07T07:21:26;9.87;;;6.83;;
14121;SDS011;7139;48.114;11.442;2023-12-07T07:23:53;8.53;;;7.30;;
14121;SDS011;7139;48.114;11.442;2023-12-07T07:26:21;7.47;;;6.67;;
14121;SDS011;7139;48.114;11.442;2023-12-07T07:28:50;7.40;;;6.57;;
14121;SDS011;7139;48.114;11.442;2023-12-07T07:31:17;8.03;;;6.83;;
14121;SDS011;7139;48.114;11.442;2023-12-07T07:33:44;9.00;;;7.27;;
14121;SDS011;7139;48.114;11.442;2023-12-07T07:36:12;8.97;;;6.87;;
14121;SDS011;7139;48.114;11.442;2023-12-07T07:38:41;10.10;;;7.60;;
14121;SDS011;7139;48.114;11.442;2023-12-07T07:41:08;7.90;;;7.10;;
14121;SDS011;7139;48.114;11.442;2023-12-07T07:43:36;7.63;;;6.73;;
14121;SDS011;7139;48.114;11.442;2023-12-07T07:46:03;9.77;;;7.23;;
14121;SDS011;7139;48.114;11.442;2023-12-07T07:48:30;9.27;;;7.93;;
14121;SDS011;7139;48.114;11.442;2023-12-07T07:50:57;7.87;;;6.70;;
14121;SDS011;7139;48.114;11.442;2023-12-07T07:53:24;8.33;;;7.43;;
14121;SDS011;7139;48.114;11.442;2023-12-07T07:55:53;8.63;;;6.93;;
14121;SDS011;7139;48.114;11.442;2023-12-07T07:58:20;8.27;;;6.57;;
14121;SDS011;7139;48.114;11.442;2023-12-07T08:00:47;10.23;;;7.93;;
14121;SDS011;7139;48.114;11.442;2023-12-07T08:03:15;9.60;;;7.57;;
14121;SDS011;7139;48.114;11.442;2023-12-07T08:05:42;8.57;;;7.53;;
14121;SDS011;7139;48.114;11.442;2023-12-07T08:08:09;9.10;;;7.73;;
14121;SDS011;7139;48.114;11.442;2023-12-07T08:10:36;9.33;;;7.87;;
14121;SDS011;7139;48.114;11.442;2023-12-07T08:13:05;8.50;;;7.13;;
14121;SDS011;7139;48.114;11.442;2023-12-07T08:15:32;9.07;;;7.63;;
14121;SDS011;7139;48.114;11.442;2023-12-07T08:18:00;9.87;;;7.73;;
14121;SDS011;7139;48.114;11.442;2023-12-07T08:20:27;9.83;;;7.90;;
14121;SDS011;7139;48.114;11.442;2023-12-07T08:22:54;10.60;;;8.17;;
14121;SDS011;7139;48.114;11.442;2023-12-07T08:25:21;9.33;;;7.83;;
14121;SDS011;7139;48.114;11.442;2023-12-07T08:27:48;8.70;;;7.57;;
14121;SDS011;7139;48.114;11.442;2023-12-07T08:30:17;10.27;;;8.17;;
14121;SDS011;7139;48.114;11.442;2023-12-07T08:32:44;9.13;;;8.13;;
14121;SDS011;7139;48.114;11.442;2023-12-07T08:35:12;8.73;;;7.83;;
14121;SDS011;7139;48.114;11.442;2023-12-07T08:37:39;10.13;;;8.07;;
14121;SDS011;7139;48.114;11.442;2023-12-07T08:40:06;9.80;;;8.07;;
14121;SDS011;7139;48.114;11.442;2023-12-07T08:42:35;9.63;;;8.40;;
14121;SDS011;7139;48.114;11.442;2023-12-07T08:45:02;10.47;;;8.23;;
14121;SDS011;7139;48.114;11.442;2023-12-07T08:47:30;10.30;;;8.50;;
14121;SDS011;7139;48.114;11.442;2023-12-07T08:49:57;9.83;;;8.67;;
14121;SDS011;7139;48.114;11.442;2023-12-07T08:52:24;11.53;;;8.47;;
14121;SDS011;7139;48.114;11.442;2023-12-07T08:54:52;10.53;;;8.50;;
14121;SDS011;7139;48.114;11.442;2023-12-07T08:57:19;10.87;;;8.53;;
14121;SDS011;7139;48.114;11.442;2023-12-07T08:59:46;10.07;;;7.87;;
14121;SDS011;7139;48.114;11.442;2023-12-07T09:02:13;10.27;;;8.60;;
14121;SDS011;7139;48.114;11.442;2023-12-07T09:04:42;9.77;;;8.57;;
14121;SDS011;7139;48.114;11.442;2023-12-07T09:07:09;9.60;;;8.03;;
14121;SDS011;7139;48.114;11.442;2023-12-07T09:09:40;9.37;;;8.27;;
14121;SDS011;7139;48.114;11.442;2023-12-07T09:12:11;10.43;;;8.97;;
14121;SDS011;7139;48.114;11.442;2023-12-07T09:14:39;11.97;;;8.70;;
14121;SDS011;7139;48.114;11.442;2023-12-07T09:17:06;11.73;;;8.50;;
14121;SDS011;7139;48.114;11.442;2023-12-07T09:19:33;13.67;;;8.73;;
14121;SDS011;7139;48.114;11.442;2023-12-07T09:22:01;11.60;;;8.50;;
14121;SDS011;7139;48.114;11.442;2023-12-07T09:24:28;10.07;;;8.50;;
14121;SDS011;7139;48.114;11.442;2023-12-07T09:26:55;9.70;;;8.23;;
14121;SDS011;7139;48.114;11.442;2023-12-07T09:29:23;10.57;;;7.97;;
14121;SDS011;7139;48.114;11.442;2023-12-07T09:31:50;9.10;;;7.63;;
14121;SDS011;7139;48.114;11.442;2023-12-07T09:34:17;8.53;;;7.60;;
14121;SDS011;7139;48.114;11.442;2023-12-07T09:36:44;9.90;;;7.30;;
14121;SDS011;7139;48.114;11.442;2023-12-07T09:39:13;9.30;;;7.10;;
14121;SDS011;7139;48.114;11.442;2023-12-07T09:41:40;9.13;;;7.20;;
14121;SDS011;7139;48.114;11.442;2023-12-07T09:44:08;9.10;;;7.17;;
14121;SDS011;7139;48.114;11.442;2023-12-07T09:46:35;10.67;;;7.00;;
14121;SDS011;7139;48.114;11.442;2023-12-07T09:49:03;8.63;;;6.50;;
14121;SDS011;7139;48.114;11.442;2023-12-07T09:51:30;7.90;;;6.13;;
14121;SDS011;7139;48.114;11.442;2023-12-07T09:53:59;6.87;;;5.97;;
14121;SDS011;7139;48.114;11.442;2023-12-07T09:56:27;7.07;;;5.67;;
14121;SDS011;7139;48.114;11.442;2023-12-07T09:58:55;9.47;;;5.80;;
14121;SDS011;7139;48.114;11.442;2023-12-07T10:01:27;8.67;;;4.40;;
14121;SDS011;7139;48.114;11.442;2023-12-07T10:06:41;5.13;;;3.00;;
14121;SDS011;7139;48.114;11.442;2023-12-07T10:09:09;5.97;;;3.60;;
14121;SDS011;7139;48.114;11.442;2023-12-07T10:11:38;6.43;;;4.33;;
14121;SDS011;7139;48.114;11.442;2023-12-07T10:14:06;5.00;;;3.87;;
14121;SDS011;7139;48.114;11.442;2023-12-07T10:16:34;4.47;;;3.73;;
14121;SDS011;7139;48.114;11.442;2023-12-07T10:19:11;5.10;;;3.67;;
14121;SDS011;7139;48.114;11.442;2023-12-07T10:21:39;4.43;;;3.60;;
14121;SDS011;7139;48.114;11.442;2023-12-07T10:24:06;3.50;;;3.20;;
14121;SDS011;7139;48.114;11.442;2023-12-07T10:26:33;3.60;;;2.93;;
14121;SDS011;7139;48.114;11.442;2023-12-07T10:29:03;3.77;;;2.73;;
14121;SDS011;7139;48.114;11.442;2023-12-07T10:31:31;3.23;;;2.93;;
14121;SDS011;7139;48.114;11.442;2023-12-07T10:33:58;3.10;;;2.90;;
14121;SDS011;7139;48.114;11.442;2023-12-07T10:36:25;3.53;;;3.23;;
14121;SDS011;7139;48.114;11.442;2023-12-07T10:38:52;3.37;;;3.07;;
14121;SDS011;7139;48.114;11.442;2023-12-07T10:41:20;3.60;;;3.03;;
14121;SDS011;7139;48.114;11.442;2023-12-07T10:43:48;3.10;;;2.80;;
14121;SDS011;7139;48.114;11.442;2023-12-07T10:46:17;3.90;;;3.23;;
14121;SDS011;7139;48.114;11.442;2023-12-07T10:48:47;3.67;;;3.27;;
14121;SDS011;7139;48.114;11.442;2023-12-07T10:51:16;6.07;;;3.80;;
14121;SDS011;7139;48.114;11.442;2023-12-07T10:53:45;9.00;;;4.33;;
14121;SDS011;7139;48.114;11.442;2023-12-07T10:56:14;4.00;;;3.60;;
14121;SDS011;7139;48.114;11.442;2023-12-07T10:58:42;5.70;;;4.03;;
14121;SDS011;7139;48.114;11.442;2023-12-07T11:01:10;7.30;;;4.00;;
14121;SDS011;7139;48.114;11.442;2023-12-07T11:03:40;6.80;;;3.27;;
14121;SDS011;7139;48.114;11.442;2023-12-07T11:06:08;5.47;;;3.13;;
14121;SDS011;7139;48.114;11.442;2023-12-07T11:08:36;5.33;;;3.30;;
14121;SDS011;7139;48.114;11.442;2023-12-07T11:11:06;4.87;;;3.27;;
14121;SDS011;7139;48.114;11.442;2023-12-07T11:13:35;7.17;;;3.40;;
14121;SDS011;7139;48.114;11.442;2023-12-07T11:16:03;5.10;;;3.30;;
14121;SDS011;7139;48.114;11.442;2023-12-07T11:18:30;9.17;;;3.60;;
14121;SDS011;7139;48.114;11.442;2023-12-07T11:20:59;9.60;;;3.50;;
14121;SDS011;7139;48.114;11.442;2023-12-07T11:23:26;10.93;;;4.10;;
14121;SDS011;7139;48.114;11.442;2023-12-07T11:25:54;10.20;;;3.53;;
14121;SDS011;7139;48.114;11.442;2023-12-07T11:28:33;12.50;;;4.23;;
14121;SDS011;7139;48.114;11.442;2023-12-07T11:31:00;5.40;;;3.17;;
14121;SDS011;7139;48.114;11.442;2023-12-07T11:33:28;2.90;;;2.60;;
14121;SDS011;7139;48.114;11.442;2023-12-07T11:36:04;2.57;;;2.37;;
14121;SDS011;7139;48.114;11.442;2023-12-07T11:38:32;2.90;;;2.70;;
14121;SDS011;7139;48.114;11.442;2023-12-07T11:40:59;3.90;;;2.60;;
14121;SDS011;7139;48.114;11.442;2023-12-07T11:43:32;4.40;;;2.83;;
14121;SDS011;7139;48.114;11.442;2023-12-07T11:46:03;2.93;;;2.63;;
14121;SDS011;7139;48.114;11.442;2023-12-07T11:48:30;3.00;;;2.70;;
14121;SDS011;7139;48.114;11.442;2023-12-07T11:50:58;3.47;;;2.60;;
14121;SDS011;7139;48.114;11.442;2023-12-07T11:53:27;3.10;;;2.60;;
14121;SDS011;7139;48.114;11.442;2023-12-07T11:55:55;5.03;;;2.63;;
14121;SDS011;7139;48.114;11.442;2023-12-07T11:58:23;3.00;;;2.67;;
14121;SDS011;7139;48.114;11.442;2023-12-07T12:00:51;2.90;;;2.60;;
14121;SDS011;7139;48.114;11.442;2023-12-07T12:03:19;5.27;;;2.57;;
14121;SDS011;7139;48.114;11.442;2023-12-07T12:05:46;2.90;;;2.60;;
14121;SDS011;7139;48.114;11.442;2023-12-07T12:08:13;3.47;;;2.47;;
14121;SDS011;7139;48.114;11.442;2023-12-07T12:10:41;2.80;;;2.60;;
14121;SDS011;7139;48.114;11.442;2023-12-07T12:13:09;2.70;;;2.50;;
14121;SDS011;7139;48.114;11.442;2023-12-07T12:15:37;3.90;;;2.43;;
14121;SDS011;7139;48.114;11.442;2023-12-07T12:18:04;3.10;;;2.80;;
14121;SDS011;7139;48.114;11.442;2023-12-07T12:20:31;7.13;;;3.00;;
14121;SDS011;7139;48.114;11.442;2023-12-07T12:22:58;26.30;;;5.93;;
14121;SDS011;7139;48.114;11.442;2023-12-07T12:25:26;20.77;;;5.00;;
14121;SDS011;7139;48.114;11.442;2023-12-07T12:27:57;10.77;;;3.57;;
14121;SDS011;7139;48.114;11.442;2023-12-07T12:30:32;14.43;;;4.30;;
14121;SDS011;7139;48.114;11.442;2023-12-07T12:32:59;15.20;;;3.77;;
14121;SDS011;7139;48.114;11.442;2023-12-07T12:35:26;5.90;;;3.30;;
14121;SDS011;7139;48.114;11.442;2023-12-07T12:37:54;10.93;;;3.87;;
14121;SDS011;7139;48.114;11.442;2023-12-07T12:40:21;11.87;;;4.13;;
14121;SDS011;7139;48.114;11.442;2023-12-07T12:42:50;13.53;;;4.73;;
14121;SDS011;7139;48.114;11.442;2023-12-07T12:45:18;10.50;;;4.43;;
14121;SDS011;7139;48.114;11.442;2023-12-07T12:47:46;9.97;;;3.40;;
14121;SDS011;7139;48.114;11.442;2023-12-07T12:52:57;6.60;;;3.00;;
14121;SDS011;7139;48.114;11.442;2023-12-07T12:55:25;6.00;;;2.83;;
14121;SDS011;7139;48.114;11.442;2023-12-07T12:57:54;5.37;;;2.60;;
14121;SDS011;7139;48.114;11.442;2023-12-07T13:00:23;3.00;;;2.70;;
14121;SDS011;7139;48.114;11.442;2023-12-07T13:02:51;4.77;;;3.10;;
14121;SDS011;7139;48.114;11.442;2023-12-07T13:05:18;2.80;;;2.57;;
14121;SDS011;7139;48.114;11.442;2023-12-07T13:07:45;4.20;;;2.80;;
14121;SDS011;7139;48.114;11.442;2023-12-07T13:10:13;2.97;;;2.43;;
14121;SDS011;7139;48.114;11.442;2023-12-07T13:12:40;3.73;;;2.90;;
14121;SDS011;7139;48.114;11.442;2023-12-07T13:15:08;3.63;;;2.87;;
14121;SDS011;7139;48.114;11.442;2023-12-07T13:17:37;3.50;;;2.93;;
14121;SDS011;7139;48.114;11.442;2023-12-07T13:20:04;3.00;;;2.70;;
14121;SDS011;7139;48.114;11.442;2023-12-07T13:22:32;3.50;;;2.90;;
14121;SDS011;7139;48.114;11.442;2023-12-07T13:24:59;3.80;;;2.97;;
14121;SDS011;7139;48.114;11.442;2023-12-07T13:27:27;3.17;;;2.87;;
14121;SDS011;7139;48.114;11.442;2023-12-07T13:29:54;2.80;;;2.60;;
14121;SDS011;7139;48.114;11.442;2023-12-07T13:32:21;3.87;;;3.00;;
14121;SDS011;7139;48.114;11.442;2023-12-07T13:34:50;2.83;;;2.63;;
14121;SDS011;7139;48.114;11.442;2023-12-07T13:37:17;2.80;;;2.60;;
14121;SDS011;7139;48.114;11.442;2023-12-07T13:39:46;3.20;;;2.70;;
14121;SDS011;7139;48.114;11.442;2023-12-07T13:42:18;4.30;;;2.70;;
14121;SDS011;7139;48.114;11.442;2023-12-07T13:44:45;2.83;;;2.63;;
14121;SDS011;7139;48.114;11.442;2023-12-07T13:47:12;2.97;;;2.67;;
14121;SDS011;7139;48.114;11.442;2023-12-07T13:49:39;3.17;;;2.80;;
14121;SDS011;7139;48.114;11.442;2023-12-07T13:52:08;2.80;;;2.53;;
14121;SDS011;7139;48.114;11.442;2023-12-07T13:54:35;2.47;;;2.27;;
14121;SDS011;7139;48.114;11.442;2023-12-07T13:57:02;3.50;;;2.30;;
14121;SDS011;7139;48.114;11.442;2023-12-07T13:59:29;2.90;;;2.60;;
14121;SDS011;7139;48.114;11.442;2023-12-07T14:01:56;4.33;;;2.60;;
14121;SDS011;7139;48.114;11.442;2023-12-07T14:04:24;4.43;;;2.70;;
14121;SDS011;7139;48.114;11.442;2023-12-07T14:06:51;3.63;;;2.80;;
14121;SDS011;7139;48.114;11.442;2023-12-07T14:09:19;3.87;;;2.80;;
14121;SDS011;7139;48.114;11.442;2023-12-07T14:11:47;3.30;;;3.00;;
14121;SDS011;7139;48.114;11.442;2023-12-07T14:14:14;2.87;;;2.53;;
14121;SDS011;7139;48.114;11.442;2023-12-07T14:16:41;2.93;;;2.73;;
14121;SDS011;7139;48.114;11.442;2023-12-07T14:19:08;4.27;;;2.73;;
14121;SDS011;7139;48.114;11.442;2023-12-07T14:21:35;3.23;;;2.80;;
14121;SDS011;7139;48.114;11.442;2023-12-07T14:24:03;3.23;;;2.87;;
14121;SDS011;7139;48.114;11.442;2023-12-07T14:26:31;3.40;;;3.03;;
14121;SDS011;7139;48.114;11.442;2023-12-07T14:28:58;3.00;;;2.70;;
14121;SDS011;7139;48.114;11.442;2023-12-07T14:31:25;3.37;;;2.63;;
14121;SDS011;7139;48.114;11.442;2023-12-07T14:33:52;3.10;;;2.80;;
14121;SDS011;7139;48.114;11.442;2023-12-07T14:36:20;3.73;;;2.80;;
14121;SDS011;7139;48.114;11.442;2023-12-07T14:38:47;3.27;;;2.67;;
14121;SDS011;7139;48.114;11.442;2023-12-07T14:41:15;2.93;;;2.63;;
14121;SDS011;7139;48.114;11.442;2023-12-07T14:43:44;3.60;;;3.17;;